createdAt,value
2017-10-22T00:00:04.725Z,3.55
2017-10-22T00:02:33.188Z,6.60
2017-10-22T00:05:01.595Z,7.43
2017-10-22T00:07:30.042Z,8.80
2017-10-22T00:09:58.427Z,3.40
2017-10-22T00:12:27.207Z,6.85
2017-10-22T00:14:55.598Z,11.93
2017-10-22T00:17:23.975Z,6.18
2017-10-22T00:19:52.375Z,4.00
2017-10-22T00:22:20.748Z,6.15
2017-10-22T00:24:49.120Z,11.23
2017-10-22T00:27:17.534Z,6.47
2017-10-22T00:29:46.678Z,3.17
2017-10-22T00:32:15.056Z,5.45
2017-10-22T00:34:43.507Z,14.27
2017-10-22T00:37:11.891Z,11.88
2017-10-22T00:39:40.269Z,10.02
2017-10-22T00:42:08.703Z,4.32
2017-10-22T00:44:37.893Z,5.50
2017-10-22T00:47:08.283Z,8.50
2017-10-22T00:49:38.060Z,5.87
2017-10-22T00:52:08.517Z,2.12
2017-10-22T00:54:37.508Z,5.20
2017-10-22T00:57:07.187Z,8.25
2017-10-22T00:59:36.257Z,8.25
2017-10-22T01:02:05.359Z,11.07
2017-10-22T01:04:35.392Z,9.55
2017-10-22T01:07:05.380Z,9.05
2017-10-22T01:09:33.761Z,10.82
2017-10-22T01:12:02.180Z,4.53
2017-10-22T01:14:30.608Z,15.35
2017-10-22T01:16:58.987Z,10.43
2017-10-22T01:19:27.437Z,4.85
2017-10-22T01:21:55.842Z,5.20
2017-10-22T01:24:24.228Z,2.40
2017-10-22T01:26:54.158Z,4.95
2017-10-22T01:29:22.540Z,3.35
2017-10-22T01:31:50.930Z,5.35
2017-10-22T01:34:20.094Z,6.43
2017-10-22T01:36:48.492Z,10.05
2017-10-22T01:39:16.877Z,15.13
2017-10-22T01:41:46.528Z,3.80
2017-10-22T01:44:14.915Z,8.93
2017-10-22T01:46:43.285Z,6.43
2017-10-22T01:49:11.693Z,3.42
2017-10-22T01:51:40.080Z,7.22
2017-10-22T01:54:08.476Z,7.57
2017-10-22T01:56:37.663Z,2.70
2017-10-22T01:59:06.046Z,8.93
2017-10-22T02:01:35.202Z,4.93
2017-10-22T02:04:03.619Z,4.28
2017-10-22T02:06:32.779Z,6.03
2017-10-22T02:09:01.162Z,5.70
2017-10-22T02:11:29.562Z,5.97
2017-10-22T02:13:59.461Z,3.62
2017-10-22T02:16:27.855Z,2.40
2017-10-22T02:18:56.270Z,6.65
2017-10-22T02:21:25.422Z,6.07
2017-10-22T02:23:53.790Z,6.85
2017-10-22T02:26:22.215Z,3.08
2017-10-22T02:28:51.358Z,8.25
2017-10-22T02:31:19.737Z,7.82
2017-10-22T02:33:48.332Z,1.15
2017-10-22T02:36:16.722Z,4.32
2017-10-22T02:38:45.104Z,5.40
2017-10-22T02:41:13.514Z,2.92
2017-10-22T02:43:42.661Z,3.85
2017-10-22T02:46:11.061Z,2.97
2017-10-22T02:48:39.491Z,4.85
2017-10-22T02:51:07.875Z,2.15
2017-10-22T02:53:36.238Z,3.60
2017-10-22T02:56:04.635Z,3.70
2017-10-22T02:58:33.002Z,3.60
2017-10-22T03:01:01.374Z,3.87
2017-10-22T03:03:29.771Z,1.33
2017-10-22T03:05:58.172Z,2.25
2017-10-22T03:08:26.544Z,1.23
2017-10-22T03:10:54.951Z,5.28
2017-10-22T03:13:23.323Z,1.20
2017-10-22T03:15:51.691Z,3.22
2017-10-22T03:18:20.090Z,6.18
2017-10-22T03:20:48.477Z,5.62
2017-10-22T03:23:17.614Z,3.12
2017-10-22T03:25:46.020Z,3.35
2017-10-22T03:28:14.414Z,4.45
2017-10-22T03:30:42.790Z,2.90
2017-10-22T03:33:11.546Z,2.83
2017-10-22T03:35:39.946Z,4.22
2017-10-22T03:38:08.333Z,5.10
2017-10-22T03:40:36.734Z,2.30
2017-10-22T03:43:05.858Z,4.60
2017-10-22T03:45:34.228Z,3.28
2017-10-22T03:48:02.744Z,1.55
2017-10-22T03:50:31.167Z,2.25
2017-10-22T03:53:00.293Z,2.53
2017-10-22T03:55:28.690Z,8.15
2017-10-22T03:57:57.049Z,3.60
2017-10-22T04:00:25.435Z,12.63
2017-10-22T04:02:54.073Z,4.45
2017-10-22T04:05:22.445Z,4.00
2017-10-22T04:07:50.827Z,7.53
2017-10-22T04:10:20.196Z,5.75
2017-10-22T04:12:48.571Z,9.70
2017-10-22T04:15:16.930Z,8.38
2017-10-22T04:17:45.352Z,4.50
2017-10-22T04:20:13.715Z,4.37
2017-10-22T04:22:42.223Z,6.03
2017-10-22T04:25:10.620Z,5.82
2017-10-22T04:27:39.763Z,5.68
2017-10-22T04:30:08.130Z,7.25
2017-10-22T04:32:36.715Z,4.95
2017-10-22T04:35:05.095Z,3.10
2017-10-22T04:37:33.474Z,10.90
2017-10-22T04:40:01.895Z,7.82
2017-10-22T04:42:30.273Z,6.10
2017-10-22T04:44:58.648Z,6.87
2017-10-22T04:47:27.851Z,5.30
2017-10-22T04:49:57.723Z,8.63
2017-10-22T04:52:26.083Z,2.50
2017-10-22T04:54:54.475Z,4.28
2017-10-22T04:57:22.864Z,10.98
2017-10-22T04:59:51.231Z,7.22
2017-10-22T05:02:19.666Z,6.03
2017-10-22T05:04:48.932Z,5.65
2017-10-22T05:07:17.310Z,13.57
2017-10-22T05:09:45.715Z,3.65
2017-10-22T05:12:14.415Z,2.55
2017-10-22T05:14:43.541Z,8.80
2017-10-22T05:17:11.943Z,14.90
2017-10-22T05:19:40.326Z,11.07
2017-10-22T05:22:09.426Z,9.63
2017-10-22T05:24:37.848Z,11.90
2017-10-22T05:27:06.975Z,8.98
2017-10-22T05:29:35.345Z,7.72
2017-10-22T05:32:03.781Z,16.27
2017-10-22T05:34:32.146Z,7.78
2017-10-22T05:37:00.524Z,4.75
2017-10-22T05:39:28.932Z,12.40
2017-10-22T05:41:58.071Z,8.35
2017-10-22T05:44:26.457Z,13.80
2017-10-22T05:46:54.873Z,20.65
2017-10-22T05:49:23.317Z,3.58
2017-10-22T05:51:51.687Z,4.50
2017-10-22T05:54:20.093Z,8.35
2017-10-22T05:56:48.468Z,21.45
2017-10-22T05:59:16.838Z,5.05
2017-10-22T06:01:45.233Z,8.38
2017-10-22T06:04:13.610Z,7.60
2017-10-22T06:06:42.117Z,9.70
2017-10-22T06:09:11.320Z,8.38
2017-10-22T06:11:40.457Z,8.82
2017-10-22T06:14:08.830Z,12.95
2017-10-22T06:16:37.815Z,12.90
2017-10-22T06:19:06.183Z,5.82
2017-10-22T06:21:34.550Z,7.35
2017-10-22T06:24:03.713Z,11.32
2017-10-22T06:26:32.087Z,7.65
2017-10-22T06:29:00.464Z,10.32
2017-10-22T06:31:29.969Z,17.25
2017-10-22T06:33:58.502Z,6.05
2017-10-22T06:36:26.890Z,15.35
2017-10-22T06:38:55.310Z,3.45
2017-10-22T06:41:23.695Z,4.45
2017-10-22T06:43:52.067Z,6.05
2017-10-22T06:46:20.938Z,12.10
2017-10-22T06:48:49.328Z,9.00
2017-10-22T06:51:17.718Z,7.37
2017-10-22T06:53:46.149Z,9.40
2017-10-22T06:56:14.538Z,6.70
2017-10-22T06:58:42.906Z,6.32
2017-10-22T07:01:11.490Z,3.30
2017-10-22T07:03:39.874Z,11.65
2017-10-22T07:06:08.255Z,32.53
2017-10-22T07:08:36.675Z,5.70
2017-10-22T07:11:05.046Z,7.07
2017-10-22T07:13:33.440Z,4.43
2017-10-22T07:16:01.869Z,11.10
2017-10-22T07:18:30.243Z,9.73
2017-10-22T07:20:58.627Z,10.07
2017-10-22T07:23:27.057Z,3.17
2017-10-22T07:25:56.202Z,2.87
2017-10-22T07:28:24.582Z,5.62
2017-10-22T07:30:53.010Z,10.57
2017-10-22T07:33:21.392Z,4.03
2017-10-22T07:35:50.646Z,4.00
2017-10-22T07:38:19.348Z,7.32
2017-10-22T07:40:47.727Z,5.75
2017-10-22T07:43:16.127Z,6.93
2017-10-22T07:45:44.548Z,5.80
2017-10-22T07:48:12.924Z,4.60
2017-10-22T07:50:41.316Z,5.75
2017-10-22T07:53:09.736Z,4.18
2017-10-22T07:55:38.110Z,4.20
2017-10-22T07:58:07.253Z,7.78
2017-10-22T08:00:35.709Z,3.37
2017-10-22T08:03:04.855Z,3.85
2017-10-22T08:05:33.235Z,6.70
2017-10-22T08:08:01.660Z,10.07
2017-10-22T08:10:31.132Z,5.65
2017-10-22T08:12:59.517Z,8.35
2017-10-22T08:15:27.926Z,16.98
2017-10-22T08:17:57.067Z,7.80
2017-10-22T08:20:25.451Z,13.00
2017-10-22T08:22:53.874Z,10.50
2017-10-22T08:25:23.029Z,9.15
2017-10-22T08:27:51.645Z,3.00
2017-10-22T08:30:20.461Z,6.97
2017-10-22T08:32:48.886Z,6.32
2017-10-22T08:35:17.261Z,8.35
2017-10-22T08:37:45.674Z,7.80
2017-10-22T08:40:14.071Z,10.52
2017-10-22T08:42:43.225Z,8.32
2017-10-22T08:45:11.841Z,7.47
2017-10-22T08:47:41.057Z,6.50
2017-10-22T08:50:09.620Z,9.48
2017-10-22T08:52:38.834Z,15.13
2017-10-22T08:55:08.017Z,7.47
2017-10-22T08:57:37.167Z,10.13
2017-10-22T09:00:05.601Z,15.32
2017-10-22T09:02:34.744Z,2.62
2017-10-22T09:05:03.141Z,9.55
2017-10-22T09:07:31.601Z,4.90
2017-10-22T09:09:59.983Z,14.38
2017-10-22T09:12:28.426Z,10.27
2017-10-22T09:14:56.851Z,7.00
2017-10-22T09:17:25.254Z,14.40
2017-10-22T09:19:53.682Z,10.02
2017-10-22T09:22:22.128Z,10.23
2017-10-22T09:24:51.299Z,6.40
2017-10-22T09:27:19.675Z,3.87
2017-10-22T09:29:48.179Z,7.62
2017-10-22T09:32:17.341Z,2.45
2017-10-22T09:34:45.756Z,9.93
2017-10-22T09:37:14.960Z,16.08
2017-10-22T09:39:44.173Z,9.32
2017-10-22T09:42:12.640Z,9.00
2017-10-22T09:44:41.830Z,4.43
2017-10-22T09:47:10.999Z,3.85
2017-10-22T09:49:39.388Z,13.60
2017-10-22T09:52:07.839Z,9.55
2017-10-22T09:54:36.218Z,10.48
2017-10-22T09:57:04.644Z,10.85
2017-10-22T09:59:33.835Z,7.85
2017-10-22T10:02:02.212Z,6.50
2017-10-22T10:04:30.965Z,5.18
2017-10-22T10:06:59.390Z,11.32
2017-10-22T10:09:27.816Z,3.85
2017-10-22T10:11:56.218Z,7.97
2017-10-22T10:14:24.676Z,14.70
2017-10-22T10:16:53.064Z,6.95
2017-10-22T10:19:21.467Z,31.02
2017-10-22T10:21:49.915Z,59.60
2017-10-22T10:24:18.320Z,48.08
2017-10-22T10:26:46.863Z,50.95
2017-10-22T10:29:15.280Z,7.45
2017-10-22T10:31:43.681Z,11.20
2017-10-22T10:34:12.859Z,11.43
2017-10-22T10:36:41.339Z,6.15
2017-10-22T10:39:09.713Z,4.15
2017-10-22T10:41:38.230Z,8.85
2017-10-22T10:44:07.419Z,8.35
2017-10-22T10:46:36.575Z,4.75
2017-10-22T10:49:04.968Z,14.07
2017-10-22T10:51:33.405Z,12.60
2017-10-22T10:54:01.823Z,16.62
2017-10-22T10:56:30.218Z,15.52
2017-10-22T10:58:58.680Z,9.00
2017-10-22T11:01:27.063Z,7.12
2017-10-22T11:03:55.523Z,6.05
2017-10-22T11:06:23.953Z,3.45
2017-10-22T11:08:53.108Z,6.57
2017-10-22T11:11:21.507Z,7.85
2017-10-22T11:13:49.987Z,6.45
2017-10-22T11:16:18.371Z,14.05
2017-10-22T11:18:46.756Z,9.77
2017-10-22T11:21:15.959Z,8.45
2017-10-22T11:23:45.126Z,7.95
2017-10-22T11:26:13.504Z,6.95
2017-10-22T11:28:43.337Z,3.00
2017-10-22T11:31:11.733Z,6.10
2017-10-22T11:33:40.926Z,9.18
2017-10-22T11:36:10.111Z,6.87
2017-10-22T11:38:39.249Z,8.20
2017-10-22T11:41:07.632Z,4.97
2017-10-22T11:43:36.126Z,6.70
2017-10-22T11:46:04.521Z,9.82
2017-10-22T11:48:32.910Z,11.45
2017-10-22T11:51:01.322Z,10.60
2017-10-22T11:53:29.720Z,8.60
2017-10-22T11:55:58.118Z,7.37
2017-10-22T11:58:26.531Z,8.40
2017-10-22T12:00:55.691Z,7.95
2017-10-22T12:03:24.077Z,12.95
2017-10-22T12:05:52.600Z,7.47
2017-10-22T12:08:21.857Z,9.68
2017-10-22T12:10:50.408Z,10.10
2017-10-22T12:13:18.886Z,13.30
2017-10-22T12:15:47.287Z,7.68
2017-10-22T12:18:15.859Z,12.27
2017-10-22T12:20:44.360Z,11.38
2017-10-22T12:23:12.743Z,5.87
2017-10-22T12:25:41.145Z,11.68
2017-10-22T12:28:09.700Z,6.90
2017-10-22T12:30:38.088Z,3.12
2017-10-22T12:33:06.513Z,13.15
2017-10-22T12:35:35.975Z,4.37
2017-10-22T12:38:04.718Z,10.50
2017-10-22T12:40:33.313Z,12.70
2017-10-22T12:43:01.747Z,4.32
2017-10-22T12:45:31.168Z,5.20
2017-10-22T12:48:00.402Z,9.30
2017-10-22T12:50:28.821Z,6.62
2017-10-22T12:52:57.201Z,7.68
2017-10-22T12:55:25.764Z,13.30
2017-10-22T12:57:54.624Z,8.95
2017-10-22T13:00:23.430Z,7.15
2017-10-22T13:02:52.736Z,3.72
2017-10-22T13:05:21.801Z,17.83
2017-10-22T13:07:50.225Z,7.20
2017-10-22T13:10:18.637Z,5.97
2017-10-22T13:12:47.882Z,1.98
2017-10-22T13:15:16.423Z,9.23
2017-10-22T13:17:45.023Z,9.32
2017-10-22T13:20:14.041Z,15.95
2017-10-22T13:22:42.777Z,11.50
2017-10-22T13:25:11.282Z,7.12
2017-10-22T13:27:39.748Z,9.27
2017-10-22T13:30:08.978Z,6.12
2017-10-22T13:32:37.571Z,13.65
2017-10-22T13:35:06.565Z,9.52
2017-10-22T13:37:35.013Z,13.75
2017-10-22T13:40:03.416Z,5.82
2017-10-22T13:42:31.856Z,11.02
2017-10-22T13:45:01.099Z,3.33
2017-10-22T13:47:29.502Z,10.82
2017-10-22T13:49:57.912Z,5.28
2017-10-22T13:52:27.048Z,2.45
2017-10-22T13:54:55.423Z,6.18
2017-10-22T13:57:23.852Z,8.32
2017-10-22T13:59:53.004Z,4.05
2017-10-22T14:02:21.383Z,4.78
2017-10-22T14:04:49.795Z,6.72
2017-10-22T14:07:18.192Z,5.65
2017-10-22T14:09:47.334Z,4.80
2017-10-22T14:12:15.747Z,6.03
2017-10-22T14:14:44.143Z,4.37
2017-10-22T14:17:13.314Z,12.18
2017-10-22T14:19:41.753Z,8.40
2017-10-22T14:22:10.140Z,6.97
2017-10-22T14:24:38.530Z,8.48
2017-10-22T14:27:06.953Z,5.37
2017-10-22T14:29:36.107Z,6.37
2017-10-22T14:32:04.487Z,15.77
2017-10-22T14:34:32.892Z,7.68
2017-10-22T14:37:01.344Z,6.90
2017-10-22T14:39:29.967Z,8.50
2017-10-22T14:41:58.460Z,10.50
2017-10-22T14:44:27.613Z,10.13
2017-10-22T14:46:55.989Z,4.07
2017-10-22T14:49:24.414Z,12.25
2017-10-22T14:51:53.572Z,7.00
2017-10-22T14:54:21.951Z,12.93
2017-10-22T14:56:50.357Z,9.95
2017-10-22T14:59:18.729Z,9.98
2017-10-22T15:01:47.129Z,11.12
2017-10-22T15:04:16.311Z,14.38
2017-10-22T15:06:45.524Z,12.75
2017-10-22T15:09:14.767Z,11.88
2017-10-22T15:11:43.224Z,11.43
2017-10-22T15:14:11.799Z,9.50
2017-10-22T15:16:40.192Z,8.63
2017-10-22T15:19:08.624Z,6.95
2017-10-22T15:21:37.007Z,10.18
2017-10-22T15:24:06.180Z,16.10
2017-10-22T15:26:34.615Z,18.92
2017-10-22T15:29:03.000Z,9.95
2017-10-22T15:31:31.387Z,10.27
2017-10-22T15:33:59.791Z,5.20
2017-10-22T15:36:28.164Z,3.72
2017-10-22T15:38:56.579Z,11.68
2017-10-22T15:41:25.779Z,8.68
2017-10-22T15:43:55.001Z,2.30
2017-10-22T15:46:23.384Z,10.05
2017-10-22T15:48:51.836Z,5.82
2017-10-22T15:51:20.991Z,8.02
2017-10-22T15:53:49.383Z,9.65
2017-10-22T15:56:18.018Z,4.43
2017-10-22T15:58:46.419Z,8.40
2017-10-22T16:01:14.784Z,7.78
2017-10-22T16:03:43.292Z,12.15
2017-10-22T16:06:11.673Z,5.15
2017-10-22T16:08:40.046Z,5.82
2017-10-22T16:11:08.616Z,6.70
2017-10-22T16:13:37.111Z,43.17
2017-10-22T16:16:05.507Z,11.88
2017-10-22T16:18:33.967Z,6.70
2017-10-22T16:21:02.338Z,7.10
2017-10-22T16:23:30.727Z,7.18
2017-10-22T16:25:59.148Z,2.67
2017-10-22T16:28:28.279Z,5.70
2017-10-22T16:30:56.659Z,5.97
2017-10-22T16:33:25.084Z,10.25
2017-10-22T16:35:53.467Z,11.35
2017-10-22T16:38:21.978Z,13.48
2017-10-22T16:40:50.389Z,9.35
2017-10-22T16:43:18.767Z,9.50
2017-10-22T16:45:47.435Z,2.95
2017-10-22T16:48:16.014Z,9.80
2017-10-22T16:50:44.390Z,11.15
2017-10-22T16:53:12.865Z,13.30
2017-10-22T16:55:41.783Z,20.08
2017-10-22T16:58:10.200Z,39.95
2017-10-22T17:00:38.583Z,34.03
2017-10-22T17:03:06.992Z,29.50
2017-10-22T17:05:35.373Z,47.85
2017-10-22T17:08:03.752Z,93.50
2017-10-22T17:10:32.159Z,89.85
2017-10-22T17:13:01.275Z,55.35
2017-10-22T17:15:29.675Z,22.87
2017-10-22T17:17:58.111Z,21.27
2017-10-22T17:20:26.899Z,18.17
2017-10-22T17:22:58.034Z,8.63
2017-10-22T17:25:26.683Z,35.13
2017-10-22T17:27:56.056Z,19.60
2017-10-22T17:30:24.991Z,6.37
2017-10-22T17:32:53.734Z,25.25
2017-10-22T17:35:23.079Z,13.65
2017-10-22T17:37:51.911Z,13.13
2017-10-22T17:40:20.791Z,3.05
2017-10-22T17:42:49.580Z,8.13
2017-10-22T17:45:18.298Z,12.65
2017-10-22T17:47:47.265Z,6.32
2017-10-22T17:50:15.966Z,0.90
2017-10-22T17:52:44.734Z,6.30
2017-10-22T17:55:13.131Z,4.75
2017-10-22T17:57:43.019Z,4.97
2017-10-22T18:00:11.427Z,9.88
2017-10-22T18:02:40.161Z,8.00
2017-10-22T18:05:08.851Z,7.20
2017-10-22T18:07:37.333Z,4.47
2017-10-22T18:10:06.266Z,4.82
2017-10-22T18:12:36.211Z,4.03
2017-10-22T18:15:06.670Z,11.82
2017-10-22T18:17:36.369Z,5.72
2017-10-22T18:20:07.618Z,6.15
2017-10-22T18:22:36.446Z,2.05
2017-10-22T18:25:05.027Z,5.10
2017-10-22T18:27:33.408Z,3.50
2017-10-22T18:30:02.079Z,3.47
2017-10-22T18:32:30.461Z,8.13
2017-10-22T18:34:58.852Z,13.32
2017-10-22T18:37:27.272Z,16.17
2017-10-22T18:39:55.683Z,6.35
2017-10-22T18:42:24.299Z,8.85
2017-10-22T18:44:52.740Z,2.95
2017-10-22T18:47:21.391Z,6.15
2017-10-22T18:49:51.052Z,7.07
2017-10-22T18:52:20.455Z,8.30
2017-10-22T18:54:49.017Z,4.45
2017-10-22T18:57:17.438Z,11.25
2017-10-22T18:59:46.083Z,7.35
2017-10-22T19:02:14.599Z,5.22
2017-10-22T19:04:43.830Z,15.02
2017-10-22T19:07:13.486Z,8.23
2017-10-22T19:09:42.905Z,4.60
2017-10-22T19:12:11.298Z,6.22
2017-10-22T19:14:40.053Z,10.15
2017-10-22T19:17:08.701Z,4.28
2017-10-22T19:19:37.214Z,10.35
2017-10-22T19:22:05.622Z,6.18
2017-10-22T19:24:34.134Z,13.80
2017-10-22T19:27:03.280Z,15.75
2017-10-22T19:29:31.736Z,13.65
2017-10-22T19:32:00.108Z,17.05
2017-10-22T19:34:28.487Z,9.38
2017-10-22T19:36:56.926Z,5.18
2017-10-22T19:39:26.239Z,17.02
2017-10-22T19:41:55.386Z,10.07
2017-10-22T19:44:23.793Z,21.17
2017-10-22T19:46:52.322Z,9.85
2017-10-22T19:49:21.844Z,5.37
2017-10-22T19:51:50.239Z,1.98
2017-10-22T19:54:18.622Z,5.68
2017-10-22T19:56:47.022Z,8.80
2017-10-22T19:59:16.177Z,4.40
2017-10-22T20:01:44.935Z,4.95
2017-10-22T20:04:14.117Z,4.57
2017-10-22T20:06:43.459Z,8.48
2017-10-22T20:09:11.950Z,3.97
2017-10-22T20:11:41.152Z,4.40
2017-10-22T20:14:09.800Z,8.02
2017-10-22T20:16:38.181Z,20.15
2017-10-22T20:19:06.621Z,6.37
2017-10-22T20:21:35.032Z,14.43
2017-10-22T20:24:04.184Z,8.77
2017-10-22T20:26:32.626Z,6.32
2017-10-22T20:29:01.012Z,8.13
2017-10-22T20:31:29.419Z,4.93
2017-10-22T20:33:57.846Z,5.55
2017-10-22T20:36:26.994Z,16.73
2017-10-22T20:38:55.582Z,8.30
2017-10-22T20:41:23.974Z,7.28
2017-10-22T20:43:52.360Z,23.40
2017-10-22T20:46:20.763Z,19.77
2017-10-22T20:48:49.147Z,22.40
2017-10-22T20:51:17.650Z,23.48
2017-10-22T20:53:46.962Z,11.45
2017-10-22T20:56:15.343Z,22.05
2017-10-22T20:58:43.735Z,15.57
2017-10-22T21:01:12.136Z,27.50
2017-10-22T21:03:40.894Z,20.25
2017-10-22T21:06:09.271Z,34.92
2017-10-22T21:08:37.918Z,17.15
2017-10-22T21:11:06.354Z,12.48
2017-10-22T21:13:34.732Z,16.17
2017-10-22T21:16:03.120Z,6.78
2017-10-22T21:18:32.299Z,5.35
2017-10-22T21:21:00.677Z,8.18
2017-10-22T21:23:29.096Z,5.93
2017-10-22T21:25:57.523Z,4.70
2017-10-22T21:28:25.913Z,7.90
2017-10-22T21:30:54.298Z,6.07
2017-10-22T21:33:22.732Z,12.20
2017-10-22T21:35:51.140Z,5.62
2017-10-22T21:38:19.511Z,3.97
2017-10-22T21:40:47.933Z,8.27
2017-10-22T21:43:17.099Z,4.53
2017-10-22T21:45:45.489Z,5.62
2017-10-22T21:48:27.617Z,6.62
2017-10-22T21:50:56.688Z,4.93
2017-10-22T21:53:25.152Z,8.27
2017-10-22T21:55:53.516Z,4.40
2017-10-22T21:58:21.896Z,7.35
2017-10-22T22:00:50.311Z,6.10
2017-10-22T22:03:18.713Z,8.43
2017-10-22T22:05:47.092Z,5.50
2017-10-22T22:08:16.298Z,5.55
2017-10-22T22:10:44.664Z,4.78
2017-10-22T22:13:13.804Z,16.55
2017-10-22T22:15:42.234Z,7.80
2017-10-22T22:18:10.623Z,3.28
2017-10-22T22:20:40.124Z,5.15
2017-10-22T22:23:09.364Z,8.82
2017-10-22T22:25:37.735Z,9.05
2017-10-22T22:28:06.124Z,6.30
2017-10-22T22:30:34.661Z,2.95
2017-10-22T22:33:04.024Z,8.18
2017-10-22T22:35:32.396Z,11.63
2017-10-22T22:38:00.802Z,7.75
2017-10-22T22:40:29.178Z,6.30
2017-10-22T22:42:57.603Z,5.97
2017-10-22T22:45:27.001Z,5.90
2017-10-22T22:47:55.423Z,8.73
2017-10-22T22:50:23.820Z,7.47
2017-10-22T22:52:52.221Z,7.95
2017-10-22T22:55:20.689Z,8.63
2017-10-22T22:57:49.065Z,15.18
2017-10-22T23:00:18.254Z,9.77
2017-10-22T23:02:46.635Z,8.75
2017-10-22T23:05:15.853Z,10.80
2017-10-22T23:07:45.052Z,13.38
2017-10-22T23:10:13.433Z,12.73
2017-10-22T23:12:41.911Z,18.45
2017-10-22T23:15:11.083Z,9.00
2017-10-22T23:17:39.469Z,10.52
2017-10-22T23:20:08.615Z,5.45
2017-10-22T23:22:37.042Z,8.80
2017-10-22T23:25:05.421Z,5.60
2017-10-22T23:27:34.571Z,11.10
2017-10-22T23:30:02.992Z,7.45
2017-10-22T23:32:31.377Z,4.60
2017-10-22T23:35:00.515Z,8.70
2017-10-22T23:37:28.927Z,4.43
2017-10-22T23:39:57.321Z,9.50
2017-10-22T23:42:25.698Z,15.82
2017-10-22T23:44:54.362Z,12.68
2017-10-22T23:47:23.138Z,9.38
2017-10-22T23:49:51.884Z,5.50
2017-10-22T23:52:21.366Z,11.70
2017-10-22T23:54:49.806Z,10.35
2017-10-22T23:57:18.177Z,9.02
2017-10-22T23:59:46.771Z,12.23
